Time;durP1;ratioP1;P1;durP2;ratioP2;P2;SDS_P1;SDS_P2;PMS_P1;PMS_P2;Temp;Humidity;BMP_temperature;BMP_pressure;BME280_temperature;BME280_humidity;BME280_pressure;Samples;Min_cycle;Max_cycle;Signal;HPM_P1;HPM_P2
2024/01/24 00:01:51;;;;;;;6.68;2.20;;;;;;;6.21;100.00;98156.28;4992135;28;20409;-77
2024/01/24 00:04:17;;;;;;;9.00;2.40;;;;;;;6.22;100.00;98165.78;4992000;28;20402;-77
2024/01/24 00:06:43;;;;;;;8.95;2.60;;;;;;;6.28;100.00;98164.16;4991961;28;20953;-78
2024/01/24 00:09:09;;;;;;;11.75;2.60;;;;;;;6.32;100.00;98167.97;4992456;28;20433;-77
2024/01/24 00:11:36;;;;;;;8.27;2.30;;;;;;;6.36;100.00;98153.44;4991972;28;20406;-78
2024/01/24 00:14:03;;;;;;;11.40;2.47;;;;;;;6.49;100.00;98142.88;4992709;28;20768;-77
2024/01/24 00:16:29;;;;;;;12.32;2.75;;;;;;;6.56;100.00;98145.47;4993466;28;20425;-78
2024/01/24 00:18:56;;;;;;;9.13;2.15;;;;;;;6.63;100.00;98137.56;4994458;28;20834;-78
2024/01/24 00:21:23;;;;;;;10.38;2.40;;;;;;;6.68;100.00;98122.00;4935460;28;1700243;-78
2024/01/24 00:23:49;;;;;;;7.72;2.08;;;;;;;6.69;100.00;98119.13;4994383;28;20402;-78
2024/01/24 00:26:15;;;;;;;6.22;2.20;;;;;;;6.67;100.00;98120.38;4993079;28;20418;-78
2024/01/24 00:28:41;;;;;;;8.15;2.63;;;;;;;6.71;100.00;98117.09;4993912;28;20488;-77
2024/01/24 00:31:07;;;;;;;12.90;2.60;;;;;;;6.74;100.00;98111.44;5004026;28;20409;-78
2024/01/24 00:33:34;;;;;;;8.65;2.45;;;;;;;6.73;100.00;98117.72;5004479;28;20409;-79
2024/01/24 00:36:01;;;;;;;14.50;2.53;;;;;;;6.71;100.00;98103.16;4996785;28;20413;-78
2024/01/24 00:38:28;;;;;;;9.98;2.35;;;;;;;6.76;100.00;98098.91;5001813;28;20430;-78
2024/01/24 00:40:54;;;;;;;12.25;2.45;;;;;;;6.80;100.00;98086.91;5002679;28;20417;-78
2024/01/24 00:43:21;;;;;;;8.33;2.40;;;;;;;6.79;100.00;98089.75;5003521;28;20402;-78
2024/01/24 00:45:47;;;;;;;7.70;2.38;;;;;;;6.78;100.00;98091.56;5002396;28;20433;-78
2024/01/24 00:48:13;;;;;;;11.52;2.70;;;;;;;6.75;100.00;98107.81;5004741;28;20406;-78
2024/01/24 00:50:39;;;;;;;4.30;1.77;;;;;;;6.82;100.00;98087.53;5005877;28;20402;-78
2024/01/24 00:53:07;;;;;;;8.13;2.30;;;;;;;6.80;100.00;98109.78;5006990;28;20409;-79
2024/01/24 00:55:33;;;;;;;5.63;1.75;;;;;;;6.81;100.00;98093.81;5006481;28;20420;-78
2024/01/24 00:57:59;;;;;;;10.13;2.58;;;;;;;6.82;100.00;98107.78;5004877;28;20394;-79
2024/01/24 01:00:26;;;;;;;7.72;2.00;;;;;;;6.86;100.00;98103.69;5004460;28;20403;-79
2024/01/24 01:02:52;;;;;;;6.68;2.05;;;;;;;6.85;100.00;98110.78;5003072;28;20406;-78
2024/01/24 01:05:18;;;;;;;9.00;2.65;;;;;;;6.85;100.00;98118.66;4998173;28;20457;-78
2024/01/24 01:07:44;;;;;;;8.32;2.58;;;;;;;6.82;100.00;98107.78;4996202;28;20444;-79
2024/01/24 01:10:12;;;;;;;8.27;2.20;;;;;;;6.84;100.00;98117.03;5014575;28;20488;-79
2024/01/24 01:12:38;;;;;;;9.90;2.08;;;;;;;6.85;100.00;98112.59;5015311;28;20397;-79
2024/01/24 01:15:05;;;;;;;7.20;1.95;;;;;;;6.84;100.00;98105.75;5002035;28;20418;-79
2024/01/24 01:17:31;;;;;;;6.20;2.05;;;;;;;6.85;100.00;98107.34;4995421;28;20473;-79
2024/01/24 01:19:58;;;;;;;10.30;2.40;;;;;;;6.83;100.00;98106.75;4994926;28;20407;-78
2024/01/24 01:22:24;;;;;;;8.63;2.20;;;;;;;6.80;100.00;98104.53;4996320;28;20485;-79
2024/01/24 01:24:50;;;;;;;6.10;2.00;;;;;;;6.85;100.00;98104.69;4997022;28;20887;-78
2024/01/24 01:27:17;;;;;;;6.63;1.67;;;;;;;6.85;100.00;98096.81;4998807;28;20449;-78
2024/01/24 01:29:44;;;;;;;7.97;2.00;;;;;;;6.88;100.00;98104.28;4998998;28;20922;-79
2024/01/24 01:32:10;;;;;;;7.03;1.83;;;;;;;6.87;100.00;98094.78;4996190;28;20406;-78
2024/01/24 01:34:36;;;;;;;8.60;2.30;;;;;;;6.90;100.00;98079.41;4996694;28;20461;-78
2024/01/24 01:37:02;;;;;;;7.70;2.03;;;;;;;6.90;100.00;98081.22;4994568;28;20402;-77
2024/01/24 01:39:28;;;;;;;5.50;1.80;;;;;;;6.89;100.00;98085.66;4994097;28;20501;-78
2024/01/24 01:41:55;;;;;;;10.73;2.20;;;;;;;6.88;100.00;98094.56;4994787;28;20403;-78
2024/01/24 01:44:22;;;;;;;5.53;2.23;;;;;;;6.88;100.00;98105.09;4997139;28;20454;-78
2024/01/24 01:46:51;;;;;;;6.05;1.90;;;;;;;6.85;100.00;98102.06;4996764;28;20426;-78
2024/01/24 01:49:17;;;;;;;8.45;2.20;;;;;;;6.80;100.00;98094.00;4996844;28;20470;-78
2024/01/24 01:51:44;;;;;;;7.68;1.90;;;;;;;6.77;100.00;98095.22;4996362;28;20799;-78
2024/01/24 01:54:13;;;;;;;6.77;1.70;;;;;;;6.78;100.00;98101.28;4995977;28;20482;-78
2024/01/24 01:56:40;;;;;;;5.13;1.60;;;;;;;6.75;100.00;98101.72;4996316;28;20502;-78
2024/01/24 01:59:07;;;;;;;7.45;2.00;;;;;;;6.72;100.00;98097.69;4995971;28;20457;-78
2024/01/24 02:01:35;;;;;;;5.22;1.80;;;;;;;6.71;100.00;98103.16;4996253;28;20401;-78
2024/01/24 02:04:02;;;;;;;7.25;2.00;;;;;;;6.65;100.00;98101.34;4996318;28;20437;-78
2024/01/24 02:06:28;;;;;;;8.57;2.22;;;;;;;6.67;100.00;98107.22;4996611;28;20811;-77
2024/01/24 02:08:55;;;;;;;5.32;1.90;;;;;;;6.72;100.00;98099.50;4996943;28;20771;-77
2024/01/24 02:11:21;;;;;;;9.10;2.10;;;;;;;6.74;100.00;98102.75;4996926;28;20493;-78
2024/01/24 02:13:47;;;;;;;8.93;1.92;;;;;;;6.81;100.00;98099.06;4997515;28;20399;-77
2024/01/24 02:16:13;;;;;;;3.58;1.75;;;;;;;6.81;100.00;98093.00;4996283;28;20422;-78
2024/01/24 02:18:42;;;;;;;6.38;1.90;;;;;;;6.74;100.00;98085.13;4997166;28;20421;-77
2024/01/24 02:21:08;;;;;;;4.67;1.97;;;;;;;6.73;100.00;98085.34;5000411;28;20433;-79
2024/01/24 02:23:35;;;;;;;7.78;1.90;;;;;;;6.69;100.00;98082.31;5002086;28;20410;-79
2024/01/24 02:26:04;;;;;;;3.42;1.50;;;;;;;6.67;100.00;98088.81;5005974;28;20473;-79
2024/01/24 02:28:30;;;;;;;7.18;1.65;;;;;;;6.59;100.00;98081.97;5004983;28;20406;-79
2024/01/24 02:30:56;;;;;;;5.22;1.90;;;;;;;6.56;100.00;98088.44;5003982;28;20406;-79
2024/01/24 02:33:22;;;;;;;6.00;2.08;;;;;;;6.55;100.00;98080.75;5001613;28;20401;-79
2024/01/24 02:35:48;;;;;;;5.60;1.98;;;;;;;6.52;100.00;98068.84;5003378;28;20399;-79
2024/01/24 02:38:14;;;;;;;9.27;2.43;;;;;;;6.54;100.00;98068.63;5003024;28;20923;-79
2024/01/24 02:40:40;;;;;;;9.05;1.90;;;;;;;6.54;100.00;98064.16;5002678;28;20959;-79
2024/01/24 02:43:08;;;;;;;4.60;1.63;;;;;;;6.59;100.00;98061.72;5007446;28;20446;-78
2024/01/24 02:45:34;;;;;;;4.65;1.70;;;;;;;6.59;100.00;98050.38;5004331;28;20403;-77
2024/01/24 02:48:00;;;;;;;4.55;1.60;;;;;;;6.55;100.00;98055.25;4998118;28;20414;-78
2024/01/24 02:50:26;;;;;;;3.35;1.50;;;;;;;6.52;100.00;98053.06;5001257;28;20853;-80
2024/01/24 02:52:53;;;;;;;7.45;1.73;;;;;;;6.50;100.00;98057.72;5004321;28;20403;-79
2024/01/24 02:55:19;;;;;;;5.10;1.80;;;;;;;6.52;100.00;98060.94;5004545;28;20420;-79
2024/01/24 02:57:45;;;;;;;7.70;2.10;;;;;;;6.58;100.00;98046.13;5002945;28;20409;-78
2024/01/24 03:00:13;;;;;;;6.37;1.80;;;;;;;6.72;100.00;98031.91;5001064;28;20402;-79
2024/01/24 03:02:40;;;;;;;4.45;1.60;;;;;;;6.73;100.00;98033.53;5000947;28;20398;-79
2024/01/24 03:05:08;;;;;;;3.70;1.60;;;;;;;6.80;100.00;98030.84;5000793;28;20786;-79
2024/01/24 03:07:35;;;;;;;4.88;2.17;;;;;;;6.75;100.00;98034.13;5001693;28;20489;-78
2024/01/24 03:10:01;;;;;;;3.90;1.60;;;;;;;6.70;100.00;98036.56;5001490;28;20399;-79
2024/01/24 03:12:27;;;;;;;3.92;1.77;;;;;;;6.66;100.00;98043.28;5006396;28;20409;-78
2024/01/24 03:14:53;;;;;;;6.90;2.10;;;;;;;6.70;100.00;98054.97;5007488;28;20417;-78
2024/01/24 03:17:21;;;;;;;4.03;1.80;;;;;;;6.80;100.00;98068.50;5002123;28;20409;-79
2024/01/24 03:19:47;;;;;;;3.03;1.50;;;;;;;6.89;100.00;98075.13;5001935;28;20399;-79
2024/01/24 03:22:13;;;;;;;5.20;1.90;;;;;;;6.92;100.00;98063.38;5000795;28;20456;-78
2024/01/24 03:24:39;;;;;;;3.80;1.40;;;;;;;6.96;100.00;98065.38;5001610;28;20398;-79
2024/01/24 03:27:06;;;;;;;3.03;1.38;;;;;;;6.97;100.00;98056.47;5000992;28;20433;-79
2024/01/24 03:29:32;;;;;;;4.65;1.50;;;;;;;6.99;100.00;98049.16;5000489;28;20399;-79
2024/01/24 03:31:58;;;;;;;2.65;1.30;;;;;;;7.04;100.00;98055.63;4999930;28;20399;-79
2024/01/24 03:34:30;;;;;;;3.30;1.40;;;;;;;7.05;100.00;98062.50;5001978;28;20450;-79
2024/01/24 03:36:56;;;;;;;3.00;1.30;;;;;;;7.13;100.00;98051.72;5001390;28;20402;-79
2024/01/24 03:39:22;;;;;;;2.25;1.30;;;;;;;7.17;100.00;98058.16;5001217;28;20437;-79
2024/01/24 03:41:49;;;;;;;6.50;1.90;;;;;;;7.23;100.00;98052.84;5001427;28;20395;-79
2024/01/24 03:44:15;;;;;;;7.13;2.05;;;;;;;7.29;100.00;98046.72;4999941;28;20403;-79
2024/01/24 03:46:41;;;;;;;6.85;1.83;;;;;;;7.29;100.00;98054.63;5000895;28;20418;-79
2024/01/24 03:49:07;;;;;;;4.72;1.90;;;;;;;7.35;100.00;98056.44;5007975;28;20395;-79
2024/01/24 03:51:34;;;;;;;4.25;1.58;;;;;;;7.37;100.00;98049.09;5008494;28;20457;-79
2024/01/24 03:54:00;;;;;;;5.30;2.00;;;;;;;7.37;100.00;98040.38;5008781;28;20488;-79
2024/01/24 03:56:27;;;;;;;3.70;1.40;;;;;;;7.43;100.00;98038.75;5000606;28;20410;-79
2024/01/24 03:58:53;;;;;;;1.92;1.40;;;;;;;7.44;100.00;98040.38;4998172;28;20413;-78
2024/01/24 04:01:19;;;;;;;1.80;1.30;;;;;;;7.41;100.00;98036.31;4996994;28;20402;-79
2024/01/24 04:03:45;;;;;;;5.87;1.93;;;;;;;7.32;100.00;98035.78;4998525;28;20435;-78
2024/01/24 04:06:11;;;;;;;3.78;1.80;;;;;;;7.35;100.00;98037.19;4997942;28;20851;-79
2024/01/24 04:08:39;;;;;;;3.53;1.70;;;;;;;7.34;100.00;98046.09;4998911;28;20426;-79
2024/01/24 04:11:05;;;;;;;2.08;1.30;;;;;;;7.33;100.00;98053.19;5000132;28;20403;-78
2024/01/24 04:13:32;;;;;;;8.98;2.05;;;;;;;7.29;100.00;98032.78;4998878;28;20473;-79
2024/01/24 04:15:59;;;;;;;3.60;1.60;;;;;;;7.38;100.00;98029.66;4997560;28;20487;-79
2024/01/24 04:18:25;;;;;;;3.20;1.50;;;;;;;7.47;100.00;98050.47;4997282;28;20418;-78
2024/01/24 04:20:51;;;;;;;3.60;1.50;;;;;;;7.47;100.00;98046.00;4997403;28;20539;-79
2024/01/24 04:23:17;;;;;;;6.18;1.80;;;;;;;7.49;100.00;98064.22;4998174;28;20399;-79
2024/01/24 04:25:45;;;;;;;5.00;1.70;;;;;;;7.55;100.00;98068.63;4997204;28;20469;-79
2024/01/24 04:28:11;;;;;;;4.88;1.60;;;;;;;7.57;100.00;98080.56;4997748;28;20446;-79
2024/01/24 04:30:38;;;;;;;8.15;2.00;;;;;;;7.61;100.00;98073.03;4997518;28;20911;-79
2024/01/24 04:33:04;;;;;;;4.13;1.80;;;;;;;7.65;100.00;98072.41;4998017;28;20410;-79
2024/01/24 04:35:31;;;;;;;3.42;1.40;;;;;;;7.67;100.00;98080.06;4998126;28;20398;-79
2024/01/24 04:37:57;;;;;;;2.92;1.58;;;;;;;7.65;100.00;98069.78;4998292;28;20768;-79
2024/01/24 04:40:23;;;;;;;1.98;1.20;;;;;;;7.63;100.00;98076.28;4997307;28;20453;-79
2024/01/24 04:42:51;;;;;;;1.65;1.23;;;;;;;7.60;100.00;98080.13;4997607;28;20398;-79
2024/01/24 04:45:18;;;;;;;5.38;1.63;;;;;;;7.56;100.00;98070.25;4998174;28;20400;-79
2024/01/24 04:47:45;;;;;;;2.70;1.30;;;;;;;7.57;100.00;98067.41;4997237;28;20418;-79
2024/01/24 04:50:12;;;;;;;2.55;1.38;;;;;;;7.58;100.00;98062.94;4997163;28;20437;-79
2024/01/24 04:52:38;;;;;;;2.55;1.48;;;;;;;7.59;100.00;98075.09;4995720;28;20409;-77
2024/01/24 04:55:09;;;;;;;8.02;2.10;;;;;;;7.56;100.00;98064.97;4993480;28;20438;-78
2024/01/24 04:57:36;;;;;;;2.80;1.30;;;;;;;7.60;100.00;98068.78;4991475;28;20450;-78
2024/01/24 05:00:07;;;;;;;4.00;1.80;;;;;;;7.60;100.00;98061.69;4993849;28;20402;-78
2024/01/24 05:02:33;;;;;;;1.60;1.20;;;;;;;7.64;100.00;98062.88;4993154;28;20395;-78
2024/01/24 05:04:59;;;;;;;3.63;1.67;;;;;;;7.67;100.00;98075.63;4993451;28;20407;-77
2024/01/24 05:07:25;;;;;;;4.82;1.77;;;;;;;7.75;100.00;98085.06;4994518;28;20418;-78
2024/01/24 05:09:51;;;;;;;6.47;2.00;;;;;;;7.80;100.00;98066.81;4997694;28;20399;-78
2024/01/24 05:12:18;;;;;;;5.50;1.95;;;;;;;7.93;100.00;98076.41;5000977;28;20414;-78
2024/01/24 05:14:44;;;;;;;4.47;1.98;;;;;;;8.04;100.00;98078.34;4996943;28;20410;-78
2024/01/24 05:17:11;;;;;;;4.35;1.70;;;;;;;8.11;100.00;98058.81;5008689;28;20432;-78
2024/01/24 05:19:37;;;;;;;6.20;1.90;;;;;;;8.18;100.00;98055.28;5012195;28;20398;-78
2024/01/24 05:22:04;;;;;;;4.18;1.80;;;;;;;8.25;100.00;98056.84;5009288;28;20489;-78
2024/01/24 05:24:30;;;;;;;4.70;1.60;;;;;;;8.32;100.00;98070.78;4998439;28;20455;-78
2024/01/24 05:26:56;;;;;;;5.20;1.70;;;;;;;8.34;100.00;98083.75;5001575;28;20425;-78
2024/01/24 05:29:22;;;;;;;4.65;1.90;;;;;;;8.38;100.00;98084.94;5005425;28;20402;-78
2024/01/24 05:31:49;;;;;;;2.70;1.60;;;;;;;8.41;100.00;98087.13;5000532;28;20398;-78
2024/01/24 05:34:16;;;;;;;3.92;1.70;;;;;;;8.39;100.00;98071.53;4998676;28;20406;-78
2024/01/24 05:36:42;;;;;;;3.13;1.50;;;;;;;8.45;100.00;98064.56;5002738;28;20414;-78
2024/01/24 05:39:08;;;;;;;7.68;1.70;;;;;;;8.45;100.00;98078.56;5003427;28;20414;-79
2024/01/24 05:41:37;;;;;;;5.00;1.73;;;;;;;8.48;100.00;98058.84;5004165;28;20462;-78
2024/01/24 05:44:04;;;;;;;6.85;2.00;;;;;;;8.52;100.00;98062.63;5003435;28;20410;-80
2024/01/24 05:46:30;;;;;;;4.90;1.70;;;;;;;8.55;100.00;98059.56;5002721;28;20422;-79
2024/01/24 05:48:57;;;;;;;8.32;2.30;;;;;;;8.59;100.00;98059.91;5003063;28;20476;-78
2024/01/24 05:51:24;;;;;;;4.93;1.70;;;;;;;8.61;100.00;98078.97;5004196;28;20407;-79
2024/01/24 05:53:50;;;;;;;3.92;1.50;;;;;;;8.64;100.00;98092.56;5001590;28;20461;-77
2024/01/24 05:56:16;;;;;;;5.50;1.70;;;;;;;8.58;100.00;98063.59;5000443;28;20409;-78
2024/01/24 05:58:43;;;;;;;7.63;1.83;;;;;;;8.58;100.00;98051.19;5000542;28;20775;-78
2024/01/24 06:01:09;;;;;;;6.20;2.20;;;;;;;8.57;100.00;98023.19;5000847;28;20394;-79
2024/01/24 06:03:35;;;;;;;8.18;2.08;;;;;;;8.58;100.00;98030.09;5001230;28;20413;-78
2024/01/24 06:06:01;;;;;;;5.00;1.95;;;;;;;8.62;100.00;98023.34;4999050;28;20406;-78
2024/01/24 06:08:31;;;;;;;6.72;1.70;;;;;;;8.63;100.00;98026.78;4995435;28;20423;-78
2024/01/24 06:10:57;;;;;;;3.58;1.60;;;;;;;8.66;100.00;98011.31;5003041;28;20399;-79
2024/01/24 06:13:24;;;;;;;3.53;1.50;;;;;;;8.66;100.00;98032.41;5003371;28;20486;-78
2024/01/24 06:15:51;;;;;;;4.47;1.90;;;;;;;8.69;100.00;98039.09;4996119;28;20414;-78
2024/01/24 06:18:17;;;;;;;3.22;1.60;;;;;;;8.68;100.00;98064.69;4989587;28;20457;-78
2024/01/24 06:20:45;;;;;;;2.85;1.40;;;;;;;8.68;100.00;98064.69;4989145;28;20442;-78
2024/01/24 06:23:11;;;;;;;3.13;1.70;;;;;;;8.69;100.00;98066.28;4998628;28;20771;-78
2024/01/24 06:25:39;;;;;;;3.15;1.63;;;;;;;8.71;100.00;98058.16;4997606;28;20438;-78
2024/01/24 06:28:05;;;;;;;3.38;1.60;;;;;;;8.73;100.00;98064.81;4998912;28;20427;-78
2024/01/24 06:30:31;;;;;;;2.00;1.30;;;;;;;8.76;100.00;98082.03;4999242;28;20406;-78
2024/01/24 06:32:58;;;;;;;3.42;1.60;;;;;;;8.78;100.00;98085.28;4983353;28;20475;-78
2024/01/24 06:35:24;;;;;;;2.35;1.40;;;;;;;8.80;100.00;98078.72;4981641;28;20404;-78
2024/01/24 06:37:51;;;;;;;2.40;1.40;;;;;;;8.78;100.00;98077.38;4997788;28;20856;-78
2024/01/24 06:40:20;;;;;;;1.80;1.20;;;;;;;8.82;100.00;98073.22;4998306;28;20473;-79
2024/01/24 06:42:48;;;;;;;3.58;1.50;;;;;;;8.85;100.00;98084.16;4978364;28;20500;-78
2024/01/24 06:45:14;;;;;;;3.78;1.50;;;;;;;8.95;100.00;98064.34;4976844;28;20412;-78
2024/01/24 06:47:40;;;;;;;2.03;1.40;;;;;;;8.98;100.00;98062.06;4977664;28;20423;-78
2024/01/24 06:50:08;;;;;;;2.95;1.40;;;;;;;9.04;100.00;98063.00;4977569;28;20918;-78
2024/01/24 06:52:35;;;;;;;1.50;1.10;;;;;;;9.06;100.00;98055.66;4978514;28;20431;-78
2024/01/24 06:55:01;;;;;;;2.33;1.38;;;;;;;9.08;100.00;98050.97;4975670;28;20404;-78
2024/01/24 06:57:28;;;;;;;2.03;1.30;;;;;;;9.03;100.00;98048.16;4976169;28;20439;-78
2024/01/24 06:59:55;;;;;;;2.43;1.30;;;;;;;8.95;100.00;98049.28;4975674;28;20971;-78
2024/01/24 07:02:21;;;;;;;1.65;1.33;;;;;;;8.90;100.00;98054.44;4976986;28;20423;-77
2024/01/24 07:04:47;;;;;;;1.85;1.20;;;;;;;8.84;100.00;98056.16;4973943;28;20901;-77
2024/01/24 07:07:14;;;;;;;2.42;1.60;;;;;;;8.82;100.00;98058.19;4974251;28;20420;-77
2024/01/24 07:09:40;;;;;;;2.10;1.40;;;;;;;8.82;100.00;98050.28;4974377;28;20423;-77
2024/01/24 07:12:07;;;;;;;1.70;1.20;;;;;;;8.83;100.00;98027.34;4975858;28;20404;-76
2024/01/24 07:14:33;;;;;;;3.60;1.45;;;;;;;8.88;100.00;98036.19;4991212;28;20404;-77
2024/01/24 07:17:01;;;;;;;3.22;1.40;;;;;;;8.95;100.00;98030.03;4995424;28;20763;-78
2024/01/24 07:19:28;;;;;;;3.00;1.20;;;;;;;9.02;100.00;98018.31;4997792;28;20406;-79
2024/01/24 07:21:54;;;;;;;4.03;1.42;;;;;;;9.17;100.00;98018.69;4995668;28;20446;-78
2024/01/24 07:24:20;;;;;;;1.73;1.30;;;;;;;9.21;100.00;98025.16;4993428;28;20414;-78
2024/01/24 07:26:47;;;;;;;1.83;1.38;;;;;;;9.22;100.00;98024.13;4994337;28;20423;-77
2024/01/24 07:29:13;;;;;;;2.15;1.17;;;;;;;9.18;100.00;98033.53;4991267;28;20408;-80
2024/01/24 07:31:39;;;;;;;1.77;1.23;;;;;;;9.16;100.00;98051.44;4994127;28;20449;-79
2024/01/24 07:34:07;;;;;;;2.22;1.23;;;;;;;9.18;100.00;98043.28;4996437;28;20447;-81
2024/01/24 07:36:33;;;;;;;2.03;1.60;;;;;;;9.17;100.00;98044.34;4999162;28;20485;-81
2024/01/24 07:38:59;;;;;;;3.30;1.42;;;;;;;9.21;100.00;98046.28;4999411;28;20406;-78
2024/01/24 07:41:26;;;;;;;1.75;1.25;;;;;;;9.24;100.00;98034.47;4991124;28;20415;-79
2024/01/24 07:43:52;;;;;;;6.03;1.48;;;;;;;9.28;100.00;98039.06;5001647;28;20402;-79
2024/01/24 07:46:18;;;;;;;2.87;1.33;;;;;;;9.32;100.00;98040.22;4995619;28;20495;-78
2024/01/24 07:48:44;;;;;;;3.38;1.80;;;;;;;9.36;100.00;98032.66;5001481;28;20771;-81
2024/01/24 07:51:12;;;;;;;3.20;1.43;;;;;;;9.38;100.00;98043.00;5001456;28;20398;-78
2024/01/24 07:53:38;;;;;;;2.20;1.10;;;;;;;9.42;100.00;98052.06;5003829;28;20914;-79
2024/01/24 07:56:05;;;;;;;3.20;1.30;;;;;;;9.43;100.00;98065.06;5004010;28;20409;-80
2024/01/24 07:58:31;;;;;;;2.55;1.40;;;;;;;9.46;100.00;98038.19;5004822;28;20398;-80
2024/01/24 08:00:57;;;;;;;1.60;1.30;;;;;;;9.50;100.00;98044.63;4997190;28;20465;-79
2024/01/24 08:03:24;;;;;;;1.33;1.00;;;;;;;9.52;100.00;98061.06;5005100;28;20907;-83
2024/01/24 08:05:50;;;;;;;1.48;1.00;;;;;;;9.54;100.00;98047.63;5001003;28;20400;-82
2024/01/24 08:08:17;;;;;;;1.48;1.20;;;;;;;9.56;100.00;98045.53;5000489;28;20492;-80
2024/01/24 08:10:43;;;;;;;3.60;1.38;;;;;;;9.63;100.00;98054.16;4999173;28;20430;-81
2024/01/24 08:13:09;;;;;;;2.70;1.20;;;;;;;9.67;100.00;98063.25;4997990;28;20411;-82
2024/01/24 08:15:35;;;;;;;1.30;1.20;;;;;;;9.68;100.00;98070.97;4998140;28;20464;-81
2024/01/24 08:18:02;;;;;;;2.38;1.17;;;;;;;9.70;100.00;98068.09;4998315;28;20406;-81
2024/01/24 08:20:28;;;;;;;2.40;1.10;;;;;;;9.71;100.00;98072.34;4998933;28;20429;-81
2024/01/24 08:22:54;;;;;;;1.55;1.17;;;;;;;9.83;100.00;98080.28;4998756;28;20457;-81
2024/01/24 08:25:22;;;;;;;1.67;1.30;;;;;;;9.82;100.00;98084.78;4999151;28;20410;-81
2024/01/24 08:27:48;;;;;;;2.28;1.35;;;;;;;9.92;100.00;98071.00;4998367;28;20450;-81
2024/01/24 08:30:15;;;;;;;1.38;1.10;;;;;;;9.96;100.00;98072.13;4999146;28;20399;-81
2024/01/24 08:32:42;;;;;;;2.00;1.10;;;;;;;10.01;100.00;98074.88;4999306;28;20917;-81
2024/01/24 08:35:08;;;;;;;1.25;1.15;;;;;;;10.07;100.00;98061.53;4998526;28;20402;-81
2024/01/24 08:37:34;;;;;;;3.63;1.10;;;;;;;10.08;100.00;98065.00;4998021;28;20411;-81
2024/01/24 08:40:00;;;;;;;2.65;1.10;;;;;;;10.02;100.00;98058.78;4998523;28;20858;-81
2024/01/24 08:42:28;;;;;;;0.80;0.80;;;;;;;10.13;100.00;98065.13;4999974;28;20787;-80
2024/01/24 08:44:54;;;;;;;1.50;1.00;;;;;;;10.14;100.00;98068.56;5000536;28;20410;-83
2024/01/24 08:47:21;;;;;;;0.95;0.88;;;;;;;10.22;100.00;98074.34;5001581;28;20415;-80
2024/01/24 08:49:48;;;;;;;1.43;0.90;;;;;;;10.27;100.00;98084.22;5003269;28;20437;-80
2024/01/24 08:52:14;;;;;;;1.67;0.98;;;;;;;10.29;100.00;98076.88;5005256;28;20411;-81
2024/01/24 08:54:43;;;;;;;1.00;0.90;;;;;;;10.30;100.00;98081.13;5005493;28;20405;-82
2024/01/24 08:57:10;;;;;;;3.33;1.30;;;;;;;10.36;100.00;98073.06;5005415;28;20457;-81
2024/01/24 08:59:38;;;;;;;1.05;0.80;;;;;;;10.38;100.00;98065.69;5001831;28;20398;-81
2024/01/24 09:02:07;;;;;;;1.35;0.82;;;;;;;10.40;100.00;98087.44;5001686;28;20410;-81
2024/01/24 09:04:33;;;;;;;0.90;0.90;;;;;;;10.44;100.00;98088.59;5001733;28;20391;-81
2024/01/24 09:06:59;;;;;;;0.77;0.77;;;;;;;10.45;100.00;98098.13;5003314;28;20490;-81
2024/01/24 09:09:25;;;;;;;1.27;0.80;;;;;;;10.47;100.00;98103.19;5003543;28;20426;-81
2024/01/24 09:11:51;;;;;;;0.90;0.80;;;;;;;10.55;100.00;98112.59;5006272;28;20403;-82
2024/01/24 09:14:18;;;;;;;1.70;0.90;;;;;;;10.50;100.00;98101.94;4990954;28;20406;-81
2024/01/24 09:16:45;;;;;;;0.93;0.90;;;;;;;10.52;100.00;98118.38;5004747;28;20414;-81
2024/01/24 09:19:12;;;;;;;0.82;0.82;;;;;;;10.47;100.00;98122.53;5006283;28;20509;-80
2024/01/24 09:21:39;;;;;;;1.10;0.85;;;;;;;10.50;100.00;98109.88;5000141;28;20487;-81
2024/01/24 09:24:06;;;;;;;1.10;1.00;;;;;;;10.43;100.00;98120.59;5004889;28;20410;-82
2024/01/24 09:26:32;;;;;;;1.30;0.90;;;;;;;10.48;100.00;98121.50;5001325;28;20406;-82
2024/01/24 09:28:58;;;;;;;0.82;0.82;;;;;;;10.45;100.00;98115.84;5004511;28;20405;-81
2024/01/24 09:31:24;;;;;;;1.30;0.90;;;;;;;10.47;100.00;98125.16;5004731;28;20474;-81
2024/01/24 09:33:52;;;;;;;0.75;0.75;;;;;;;10.39;100.00;98124.72;5007489;28;20398;-81
2024/01/24 09:36:19;;;;;;;0.80;0.80;;;;;;;10.40;100.00;98126.31;5005782;28;20410;-80
2024/01/24 09:38:45;;;;;;;0.90;0.90;;;;;;;10.39;100.00;98128.16;5004199;28;20814;-81
2024/01/24 09:41:17;;;;;;;0.80;0.80;;;;;;;10.34;100.00;98124.59;5002506;28;20403;-81
2024/01/24 09:43:45;;;;;;;1.03;0.93;;;;;;;10.31;100.00;98133.00;5005776;28;20871;-80
2024/01/24 09:46:18;;;;;;;0.70;0.70;;;;;;;10.28;100.00;98115.75;5003657;28;20394;-81
2024/01/24 09:48:45;;;;;;;2.35;1.08;;;;;;;10.28;100.00;98114.94;5004314;28;20783;-81
2024/01/24 09:51:14;;;;;;;0.93;0.90;;;;;;;10.29;100.00;98111.28;5004546;28;20410;-81
2024/01/24 09:53:42;;;;;;;2.83;1.00;;;;;;;10.34;100.00;98117.47;5005596;28;20434;-79
2024/01/24 09:56:09;;;;;;;1.60;0.90;;;;;;;10.45;100.00;98107.91;5005293;28;20405;-81
2024/01/24 09:58:35;;;;;;;1.52;0.80;;;;;;;10.57;100.00;98100.75;5002776;28;20908;-81
2024/01/24 10:01:04;;;;;;;2.40;0.90;;;;;;;10.64;100.00;98106.72;5001741;28;20438;-82
2024/01/24 10:03:31;;;;;;;3.30;1.20;;;;;;;10.76;100.00;98112.00;5000336;28;20398;-82
2024/01/24 10:05:58;;;;;;;1.30;0.80;;;;;;;10.86;100.00;98107.72;5001294;28;20409;-82
2024/01/24 10:08:25;;;;;;;0.80;0.80;;;;;;;10.98;100.00;98107.66;5000533;28;20433;-80
2024/01/24 10:10:52;;;;;;;0.80;0.80;;;;;;;11.09;100.00;98113.97;5000356;28;20867;-81
2024/01/24 10:13:18;;;;;;;1.60;0.77;;;;;;;11.12;100.00;98113.50;4999471;28;21054;-81
2024/01/24 10:15:44;;;;;;;1.15;0.82;;;;;;;11.03;100.00;98118.38;5001078;28;20486;-81
2024/01/24 10:18:16;;;;;;;1.00;0.80;;;;;;;11.04;100.00;98127.94;4999521;28;20458;-80
2024/01/24 10:20:48;;;;;;;0.70;0.70;;;;;;;11.00;100.00;98124.13;4996310;28;20454;-78
2024/01/24 10:23:15;;;;;;;0.93;0.90;;;;;;;11.04;100.00;98113.88;4987162;28;20446;-78
2024/01/24 10:25:43;;;;;;;1.70;0.80;;;;;;;11.15;100.00;98108.53;5000297;28;20403;-80
2024/01/24 10:28:13;;;;;;;2.00;0.80;;;;;;;11.53;100.00;98109.72;4999696;28;20419;-80
2024/01/24 10:30:40;;;;;;;0.80;0.80;;;;;;;11.71;100.00;98095.47;4996218;28;20437;-79
2024/01/24 10:33:11;;;;;;;0.80;0.80;;;;;;;11.89;100.00;98098.69;5000076;28;20465;-81
2024/01/24 10:35:38;;;;;;;0.70;0.70;;;;;;;12.02;100.00;98100.22;4999324;28;20441;-82
2024/01/24 10:38:05;;;;;;;0.85;0.70;;;;;;;12.09;100.00;98111.47;4988342;28;20447;-81
2024/01/24 10:40:31;;;;;;;0.88;0.70;;;;;;;11.99;100.00;98117.44;5001939;28;20399;-81
2024/01/24 10:43:07;;;;;;;0.93;0.73;;;;;;;11.88;100.00;98112.19;4982978;28;20540;-80
2024/01/24 10:45:35;;;;;;;1.00;0.85;;;;;;;11.77;100.00;98123.69;4980130;28;21425;-81
2024/01/24 10:48:01;;;;;;;0.70;0.70;;;;;;;11.74;100.00;98134.75;4985332;28;20422;-80
2024/01/24 10:50:28;;;;;;;0.80;0.80;;;;;;;11.71;100.00;98130.75;4983172;28;20488;-81
2024/01/24 10:52:55;;;;;;;0.80;0.80;;;;;;;11.81;100.00;98124.81;4983162;28;20854;-80
2024/01/24 10:55:22;;;;;;;0.70;0.70;;;;;;;11.85;100.00;98108.19;4995203;28;20402;-82
2024/01/24 10:57:50;;;;;;;1.40;0.75;;;;;;;11.77;100.00;98103.28;4994423;28;20755;-80
2024/01/24 11:00:19;;;;;;;0.80;0.80;;;;;;;11.71;100.00;98106.06;4995815;28;20404;-80
2024/01/24 11:02:45;;;;;;;1.20;0.70;;;;;;;11.56;100.00;98114.56;4995857;28;20486;-80
2024/01/24 11:05:19;;;;;;;0.80;0.80;;;;;;;11.38;100.00;98112.91;4985655;28;20404;-82
2024/01/24 11:07:54;;;;;;;1.00;0.80;;;;;;;11.10;100.00;98127.00;4995319;28;20433;-77
2024/01/24 11:10:26;;;;;;;1.60;0.80;;;;;;;10.92;100.00;98132.44;4998614;28;20919;-80
2024/01/24 11:12:52;;;;;;;0.70;0.70;;;;;;;10.74;100.00;98146.66;4997834;28;21010;-78
2024/01/24 11:15:22;;;;;;;1.50;0.90;;;;;;;10.60;100.00;98139.22;4996875;28;20787;-80
2024/01/24 11:18:20;;;;;;;2.63;0.95;;;;;;;10.43;100.00;98152.34;5002881;28;20397;-81
2024/01/24 11:20:48;;;;;;;0.80;0.80;;;;;;;10.33;100.00;98155.56;5010177;28;20402;-80
2024/01/24 11:23:44;;;;;;;0.82;0.82;;;;;;;10.25;100.00;98158.53;5006744;28;20790;-80
2024/01/24 11:26:12;;;;;;;0.90;0.90;;;;;;;10.22;100.00;98152.91;4986232;28;20414;-81
2024/01/24 11:28:38;;;;;;;0.80;0.80;;;;;;;10.21;100.00;98162.69;4998045;28;20987;-80
2024/01/24 11:31:09;;;;;;;0.88;0.88;;;;;;;10.22;100.00;98160.84;4998073;28;20444;-80